sensor_id;sensor_type;location;lat;lon;timestamp;pressure;altitude;pressure_sealevel;temperature;humidity
33506;BME280;19843;51.040;13.782;2023-04-28T00:01:52;100664.13;;;5.31;77.18
33506;BME280;19843;51.040;13.782;2023-04-28T00:04:20;100671.25;;;5.19;77.08
33506;BME280;19843;51.040;13.782;2023-04-28T00:06:48;100658.16;;;5.24;77.19
33506;BME280;19843;51.040;13.782;2023-04-28T00:09:16;100660.44;;;4.98;78.15
33506;BME280;19843;51.040;13.782;2023-04-28T00:11:43;100659.13;;;5.14;77.66
33506;BME280;19843;51.040;13.782;2023-04-28T00:14:11;100659.06;;;5.20;76.61
33506;BME280;19843;51.040;13.782;2023-04-28T00:16:40;100662.38;;;4.98;77.69
33506;BME280;19843;51.040;13.782;2023-04-28T00:19:08;100653.66;;;5.09;78.01
33506;BME280;19843;51.040;13.782;2023-04-28T00:21:36;100655.44;;;5.00;78.33
33506;BME280;19843;51.040;13.782;2023-04-28T00:24:03;100654.47;;;5.10;77.87
33506;BME280;19843;51.040;13.782;2023-04-28T00:26:31;100655.53;;;5.14;77.84
33506;BME280;19843;51.040;13.782;2023-04-28T00:28:58;100647.59;;;5.26;77.28
33506;BME280;19843;51.040;13.782;2023-04-28T00:31:26;100644.47;;;5.33;77.27
33506;BME280;19843;51.040;13.782;2023-04-28T00:33:54;100646.56;;;5.03;77.38
33506;BME280;19843;51.040;13.782;2023-04-28T00:36:22;100645.34;;;5.09;77.06
33506;BME280;19843;51.040;13.782;2023-04-28T00:38:49;100644.13;;;4.97;77.74
33506;BME280;19843;51.040;13.782;2023-04-28T00:41:17;100630.38;;;5.10;77.44
33506;BME280;19843;51.040;13.782;2023-04-28T00:43:45;100618.81;;;5.08;77.44
33506;BME280;19843;51.040;13.782;2023-04-28T00:46:19;100616.13;;;5.03;77.83
33506;BME280;19843;51.040;13.782;2023-04-28T00:48:47;100612.69;;;4.69;78.95
33506;BME280;19843;51.040;13.782;2023-04-28T00:51:16;100606.44;;;4.82;78.61
33506;BME280;19843;51.040;13.782;2023-04-28T00:53:44;100619.38;;;4.86;78.44
33506;BME280;19843;51.040;13.782;2023-04-28T00:56:11;100602.03;;;4.81;78.13
33506;BME280;19843;51.040;13.782;2023-04-28T00:58:39;100608.06;;;4.64;79.25
33506;BME280;19843;51.040;13.782;2023-04-28T01:01:08;100598.59;;;4.46;79.26
33506;BME280;19843;51.040;13.782;2023-04-28T01:03:37;100594.41;;;4.49;79.75
33506;BME280;19843;51.040;13.782;2023-04-28T01:06:06;100591.53;;;4.59;79.43
33506;BME280;19843;51.040;13.782;2023-04-28T01:08:37;100590.13;;;4.61;79.14
33506;BME280;19843;51.040;13.782;2023-04-28T01:11:05;100587.59;;;4.41;80.41
33506;BME280;19843;51.040;13.782;2023-04-28T01:13:33;100582.81;;;4.71;79.03
33506;BME280;19843;51.040;13.782;2023-04-28T01:16:00;100594.19;;;4.45;80.01
33506;BME280;19843;51.040;13.782;2023-04-28T01:18:28;100582.25;;;4.50;79.82
33506;BME280;19843;51.040;13.782;2023-04-28T01:20:57;100584.72;;;4.51;79.67
33506;BME280;19843;51.040;13.782;2023-04-28T01:23:25;100580.19;;;4.60;79.02
33506;BME280;19843;51.040;13.782;2023-04-28T01:25:54;100582.78;;;4.52;79.45
33506;BME280;19843;51.040;13.782;2023-04-28T01:28:21;100581.22;;;4.65;79.06
33506;BME280;19843;51.040;13.782;2023-04-28T01:30:49;100577.41;;;4.79;78.47
33506;BME280;19843;51.040;13.782;2023-04-28T01:33:16;100572.88;;;4.88;77.90
33506;BME280;19843;51.040;13.782;2023-04-28T01:35:43;100571.72;;;4.52;79.19
33506;BME280;19843;51.040;13.782;2023-04-28T01:38:11;100573.69;;;4.70;78.62
33506;BME280;19843;51.040;13.782;2023-04-28T01:40:38;100556.19;;;4.56;79.17
33506;BME280;19843;51.040;13.782;2023-04-28T01:43:07;100561.28;;;4.68;79.60
33506;BME280;19843;51.040;13.782;2023-04-28T01:45:34;100564.53;;;4.51;80.25
33506;BME280;19843;51.040;13.782;2023-04-28T01:48:02;100563.31;;;4.38;80.34
33506;BME280;19843;51.040;13.782;2023-04-28T01:50:29;100556.19;;;4.56;79.89
33506;BME280;19843;51.040;13.782;2023-04-28T01:52:57;100551.63;;;4.65;79.53
33506;BME280;19843;51.040;13.782;2023-04-28T01:55:25;100558.66;;;4.57;79.94
33506;BME280;19843;51.040;13.782;2023-04-28T01:57:52;100543.28;;;4.46;80.75
33506;BME280;19843;51.040;13.782;2023-04-28T02:00:21;100542.69;;;4.30;81.25
33506;BME280;19843;51.040;13.782;2023-04-28T02:02:49;100540.31;;;4.43;80.77
33506;BME280;19843;51.040;13.782;2023-04-28T02:05:16;100538.31;;;4.48;81.31
33506;BME280;19843;51.040;13.782;2023-04-28T02:07:44;100544.81;;;4.57;81.41
33506;BME280;19843;51.040;13.782;2023-04-28T02:10:12;100543.66;;;4.40;80.81
33506;BME280;19843;51.040;13.782;2023-04-28T02:12:39;100537.63;;;4.38;81.65
33506;BME280;19843;51.040;13.782;2023-04-28T02:15:08;100538.69;;;4.42;81.01
33506;BME280;19843;51.040;13.782;2023-04-28T02:17:37;100539.91;;;4.30;81.18
33506;BME280;19843;51.040;13.782;2023-04-28T02:20:05;100536.44;;;4.44;80.75
33506;BME280;19843;51.040;13.782;2023-04-28T02:22:33;100539.19;;;4.44;80.41
33506;BME280;19843;51.040;13.782;2023-04-28T02:25:00;100538.50;;;4.33;80.75
33506;BME280;19843;51.040;13.782;2023-04-28T02:27:28;100529.34;;;4.38;81.05
33506;BME280;19843;51.040;13.782;2023-04-28T02:29:55;100535.06;;;4.41;80.85
33506;BME280;19843;51.040;13.782;2023-04-28T02:32:23;100521.47;;;4.45;80.29
33506;BME280;19843;51.040;13.782;2023-04-28T02:34:53;100520.66;;;4.44;80.78
33506;BME280;19843;51.040;13.782;2023-04-28T02:37:20;100516.50;;;4.47;80.53
33506;BME280;19843;51.040;13.782;2023-04-28T02:39:48;100518.28;;;4.38;80.95
33506;BME280;19843;51.040;13.782;2023-04-28T02:42:15;100527.53;;;4.28;81.63
33506;BME280;19843;51.040;13.782;2023-04-28T02:44:43;100511.22;;;4.26;82.29
33506;BME280;19843;51.040;13.782;2023-04-28T02:47:10;100513.97;;;4.26;81.57
33506;BME280;19843;51.040;13.782;2023-04-28T02:49:38;100507.06;;;4.29;81.40
33506;BME280;19843;51.040;13.782;2023-04-28T02:52:07;100498.16;;;4.32;81.14
33506;BME280;19843;51.040;13.782;2023-04-28T02:54:34;100498.94;;;4.38;81.48
33506;BME280;19843;51.040;13.782;2023-04-28T02:57:02;100494.97;;;4.44;80.53
33506;BME280;19843;51.040;13.782;2023-04-28T02:59:30;100499.13;;;4.41;81.17
33506;BME280;19843;51.040;13.782;2023-04-28T03:01:57;100502.88;;;4.50;80.77
33506;BME280;19843;51.040;13.782;2023-04-28T03:04:25;100503.03;;;4.40;81.39
33506;BME280;19843;51.040;13.782;2023-04-28T03:06:52;100493.69;;;4.55;81.32
33506;BME280;19843;51.040;13.782;2023-04-28T03:09:21;100490.72;;;4.70;79.64
33506;BME280;19843;51.040;13.782;2023-04-28T03:11:48;100493.84;;;4.82;78.90
33506;BME280;19843;51.040;13.782;2023-04-28T03:14:16;100490.41;;;4.91;79.00
33506;BME280;19843;51.040;13.782;2023-04-28T03:16:45;100485.31;;;4.79;78.35
33506;BME280;19843;51.040;13.782;2023-04-28T03:19:12;100482.41;;;4.89;77.67
33506;BME280;19843;51.040;13.782;2023-04-28T03:21:40;100480.09;;;4.77;79.00
33506;BME280;19843;51.040;13.782;2023-04-28T03:24:07;100466.19;;;4.82;78.39
33506;BME280;19843;51.040;13.782;2023-04-28T03:26:36;100464.47;;;4.86;77.87
33506;BME280;19843;51.040;13.782;2023-04-28T03:29:03;100456.16;;;4.86;77.93
33506;BME280;19843;51.040;13.782;2023-04-28T03:31:31;100453.28;;;4.59;78.21
33506;BME280;19843;51.040;13.782;2023-04-28T03:33:58;100453.81;;;4.61;79.15
33506;BME280;19843;51.040;13.782;2023-04-28T03:36:26;100458.63;;;4.69;78.51
33506;BME280;19843;51.040;13.782;2023-04-28T03:38:53;100453.56;;;4.57;78.68
33506;BME280;19843;51.040;13.782;2023-04-28T03:41:21;100454.41;;;4.58;78.08
33506;BME280;19843;51.040;13.782;2023-04-28T03:43:50;100452.28;;;4.50;78.98
33506;BME280;19843;51.040;13.782;2023-04-28T03:46:18;100450.16;;;4.47;78.55
33506;BME280;19843;51.040;13.782;2023-04-28T03:48:46;100454.47;;;4.53;79.18
33506;BME280;19843;51.040;13.782;2023-04-28T03:51:13;100455.28;;;4.34;79.12
33506;BME280;19843;51.040;13.782;2023-04-28T03:53:40;100457.41;;;4.61;78.42
33506;BME280;19843;51.040;13.782;2023-04-28T03:56:08;100452.66;;;4.24;80.47
33506;BME280;19843;51.040;13.782;2023-04-28T03:58:35;100457.22;;;4.15;81.39
33506;BME280;19843;51.040;13.782;2023-04-28T04:01:04;100446.69;;;4.36;79.54
33506;BME280;19843;51.040;13.782;2023-04-28T04:03:32;100447.88;;;4.68;77.91
33506;BME280;19843;51.040;13.782;2023-04-28T04:05:59;100455.06;;;4.50;78.97
33506;BME280;19843;51.040;13.782;2023-04-28T04:08:27;100451.03;;;4.80;77.37
33506;BME280;19843;51.040;13.782;2023-04-28T04:10:54;100449.03;;;4.99;76.65
33506;BME280;19843;51.040;13.782;2023-04-28T04:13:22;100441.56;;;5.00;76.28
33506;BME280;19843;51.040;13.782;2023-04-28T04:15:49;100440.31;;;4.92;76.22
33506;BME280;19843;51.040;13.782;2023-04-28T04:18:19;100435.56;;;5.25;74.62
33506;BME280;19843;51.040;13.782;2023-04-28T04:20:47;100428.81;;;5.31;74.32
33506;BME280;19843;51.040;13.782;2023-04-28T04:23:15;100421.88;;;5.48;73.41
33506;BME280;19843;51.040;13.782;2023-04-28T04:25:42;100415.09;;;5.54;73.55
33506;BME280;19843;51.040;13.782;2023-04-28T04:28:09;100418.00;;;5.62;73.24
33506;BME280;19843;51.040;13.782;2023-04-28T04:30:37;100407.72;;;5.63;73.80
33506;BME280;19843;51.040;13.782;2023-04-28T04:33:04;100405.88;;;5.72;73.38
33506;BME280;19843;51.040;13.782;2023-04-28T04:35:33;100410.50;;;5.77;72.97
33506;BME280;19843;51.040;13.782;2023-04-28T04:38:01;100405.09;;;5.99;71.71
33506;BME280;19843;51.040;13.782;2023-04-28T04:40:29;100402.25;;;6.27;70.90
33506;BME280;19843;51.040;13.782;2023-04-28T04:42:56;100402.16;;;6.32;70.17
33506;BME280;19843;51.040;13.782;2023-04-28T04:45:24;100402.94;;;6.46;70.41
33506;BME280;19843;51.040;13.782;2023-04-28T04:47:52;100395.22;;;6.88;68.99
33506;BME280;19843;51.040;13.782;2023-04-28T04:50:19;100393.06;;;7.07;68.37
33506;BME280;19843;51.040;13.782;2023-04-28T04:52:49;100399.38;;;7.22;66.53
33506;BME280;19843;51.040;13.782;2023-04-28T04:55:16;100387.84;;;7.37;66.06
33506;BME280;19843;51.040;13.782;2023-04-28T04:57:44;100376.66;;;7.51;65.21
33506;BME280;19843;51.040;13.782;2023-04-28T05:00:12;100386.78;;;7.64;64.59
33506;BME280;19843;51.040;13.782;2023-04-28T05:02:42;100387.19;;;7.31;64.29
33506;BME280;19843;51.040;13.782;2023-04-28T05:05:09;100384.69;;;7.61;64.03
33506;BME280;19843;51.040;13.782;2023-04-28T05:07:47;100379.59;;;7.63;62.98
33506;BME280;19843;51.040;13.782;2023-04-28T05:10:15;100370.50;;;7.71;62.74
33506;BME280;19843;51.040;13.782;2023-04-28T05:12:43;100369.00;;;7.74;63.16
33506;BME280;19843;51.040;13.782;2023-04-28T05:15:14;100368.75;;;7.84;62.81
33506;BME280;19843;51.040;13.782;2023-04-28T05:17:41;100375.59;;;7.86;61.89
33506;BME280;19843;51.040;13.782;2023-04-28T05:20:09;100369.56;;;7.84;61.69
33506;BME280;19843;51.040;13.782;2023-04-28T05:22:38;100363.88;;;7.98;60.77
33506;BME280;19843;51.040;13.782;2023-04-28T05:25:06;100362.41;;;8.09;60.94
33506;BME280;19843;51.040;13.782;2023-04-28T05:27:35;100353.56;;;8.16;59.72
33506;BME280;19843;51.040;13.782;2023-04-28T05:30:05;100347.69;;;8.17;59.49
33506;BME280;19843;51.040;13.782;2023-04-28T05:32:34;100357.16;;;8.16;59.25
33506;BME280;19843;51.040;13.782;2023-04-28T05:35:01;100344.44;;;8.33;58.65
33506;BME280;19843;51.040;13.782;2023-04-28T05:37:29;100339.03;;;8.45;58.42
33506;BME280;19843;51.040;13.782;2023-04-28T05:39:56;100339.03;;;8.54;57.46
33506;BME280;19843;51.040;13.782;2023-04-28T05:42:24;100340.31;;;8.91;57.02
33506;BME280;19843;51.040;13.782;2023-04-28T05:44:53;100344.84;;;9.13;56.76
33506;BME280;19843;51.040;13.782;2023-04-28T05:47:20;100344.50;;;9.14;56.38
33506;BME280;19843;51.040;13.782;2023-04-28T05:49:48;100342.41;;;9.03;56.02
33506;BME280;19843;51.040;13.782;2023-04-28T05:52:15;100326.94;;;9.22;55.48
33506;BME280;19843;51.040;13.782;2023-04-28T05:54:43;100344.16;;;9.16;54.97
33506;BME280;19843;51.040;13.782;2023-04-28T05:57:10;100337.47;;;9.08;55.35
33506;BME280;19843;51.040;13.782;2023-04-28T05:59:38;100342.72;;;9.10;55.39
33506;BME280;19843;51.040;13.782;2023-04-28T06:02:06;100338.56;;;9.24;54.75
33506;BME280;19843;51.040;13.782;2023-04-28T06:04:34;100338.38;;;9.30;55.71
33506;BME280;19843;51.040;13.782;2023-04-28T06:07:02;100331.00;;;9.25;54.97
33506;BME280;19843;51.040;13.782;2023-04-28T06:09:29;100331.41;;;9.83;53.94
33506;BME280;19843;51.040;13.782;2023-04-28T06:11:57;100327.72;;;9.91;52.95
33506;BME280;19843;51.040;13.782;2023-04-28T06:14:24;100340.09;;;10.52;51.98
33506;BME280;19843;51.040;13.782;2023-04-28T06:16:52;100334.53;;;11.31;50.02
33506;BME280;19843;51.040;13.782;2023-04-28T06:19:20;100339.66;;;10.96;50.35
33506;BME280;19843;51.040;13.782;2023-04-28T06:21:48;100335.72;;;11.54;48.92
33506;BME280;19843;51.040;13.782;2023-04-28T06:24:17;100337.56;;;11.99;47.69
33506;BME280;19843;51.040;13.782;2023-04-28T06:26:45;100329.28;;;11.42;49.13
33506;BME280;19843;51.040;13.782;2023-04-28T06:29:12;100315.53;;;11.61;49.93
33506;BME280;19843;51.040;13.782;2023-04-28T06:31:40;100322.41;;;11.51;48.72
33506;BME280;19843;51.040;13.782;2023-04-28T06:34:07;100331.00;;;11.22;49.70
33506;BME280;19843;51.040;13.782;2023-04-28T06:36:36;100334.06;;;11.41;49.38
33506;BME280;19843;51.040;13.782;2023-04-28T06:39:03;100319.63;;;11.51;49.00
33506;BME280;19843;51.040;13.782;2023-04-28T06:41:31;100316.59;;;11.69;48.50
33506;BME280;19843;51.040;13.782;2023-04-28T06:43:58;100315.91;;;11.84;48.70
33506;BME280;19843;51.040;13.782;2023-04-28T06:46:26;100318.44;;;11.52;49.17
33506;BME280;19843;51.040;13.782;2023-04-28T06:48:54;100311.94;;;11.73;48.46
33506;BME280;19843;51.040;13.782;2023-04-28T06:51:21;100314.75;;;11.73;49.08
33506;BME280;19843;51.040;13.782;2023-04-28T06:53:50;100306.34;;;11.48;49.48
33506;BME280;19843;51.040;13.782;2023-04-28T06:56:18;100312.03;;;11.76;49.02
33506;BME280;19843;51.040;13.782;2023-04-28T06:58:46;100309.25;;;11.64;50.07
33506;BME280;19843;51.040;13.782;2023-04-28T07:01:13;100306.69;;;11.35;49.52
33506;BME280;19843;51.040;13.782;2023-04-28T07:03:41;100307.91;;;12.23;48.63
33506;BME280;19843;51.040;13.782;2023-04-28T07:06:08;100299.56;;;12.11;48.46
33506;BME280;19843;51.040;13.782;2023-04-28T07:08:36;100299.69;;;11.77;49.27
33506;BME280;19843;51.040;13.782;2023-04-28T07:11:05;100298.84;;;12.14;48.79
33506;BME280;19843;51.040;13.782;2023-04-28T07:13:32;100287.56;;;12.38;48.55
33506;BME280;19843;51.040;13.782;2023-04-28T07:16:00;100286.69;;;12.78;47.76
33506;BME280;19843;51.040;13.782;2023-04-28T07:18:28;100282.44;;;12.84;47.50
33506;BME280;19843;51.040;13.782;2023-04-28T07:20:55;100286.31;;;13.23;47.18
33506;BME280;19843;51.040;13.782;2023-04-28T07:23:23;100281.34;;;13.32;46.54
33506;BME280;19843;51.040;13.782;2023-04-28T07:25:50;100277.38;;;12.74;47.75
33506;BME280;19843;51.040;13.782;2023-04-28T07:28:19;100276.09;;;12.71;47.56
33506;BME280;19843;51.040;13.782;2023-04-28T07:30:46;100276.69;;;13.08;46.74
33506;BME280;19843;51.040;13.782;2023-04-28T07:33:14;100280.09;;;13.30;46.46
33506;BME280;19843;51.040;13.782;2023-04-28T07:35:41;100277.06;;;13.07;46.92
33506;BME280;19843;51.040;13.782;2023-04-28T07:38:09;100264.06;;;12.55;47.52
33506;BME280;19843;51.040;13.782;2023-04-28T07:40:36;100272.00;;;12.97;47.29
33506;BME280;19843;51.040;13.782;2023-04-28T07:43:04;100261.38;;;13.34;47.13
33506;BME280;19843;51.040;13.782;2023-04-28T07:45:32;100266.00;;;13.62;46.70
33506;BME280;19843;51.040;13.782;2023-04-28T07:48:01;100256.78;;;13.61;45.96
33506;BME280;19843;51.040;13.782;2023-04-28T07:50:29;100257.97;;;13.60;45.92
33506;BME280;19843;51.040;13.782;2023-04-28T07:52:57;100260.88;;;13.48;45.73
33506;BME280;19843;51.040;13.782;2023-04-28T07:55:25;100259.63;;;13.80;46.18
33506;BME280;19843;51.040;13.782;2023-04-28T07:57:52;100249.50;;;14.11;45.44
33506;BME280;19843;51.040;13.782;2023-04-28T08:00:20;100247.03;;;13.90;45.21
33506;BME280;19843;51.040;13.782;2023-04-28T08:02:49;100244.31;;;14.32;45.41
33506;BME280;19843;51.040;13.782;2023-04-28T08:05:17;100245.50;;;14.31;45.19
33506;BME280;19843;51.040;13.782;2023-04-28T08:07:45;100239.97;;;14.35;44.98
33506;BME280;19843;51.040;13.782;2023-04-28T08:10:12;100233.69;;;14.22;45.41
33506;BME280;19843;51.040;13.782;2023-04-28T08:12:40;100230.06;;;14.60;44.92
33506;BME280;19843;51.040;13.782;2023-04-28T08:15:08;100228.84;;;15.04;43.91
33506;BME280;19843;51.040;13.782;2023-04-28T08:17:36;100222.28;;;14.73;44.66
33506;BME280;19843;51.040;13.782;2023-04-28T08:20:06;100223.34;;;14.88;44.76
33506;BME280;19843;51.040;13.782;2023-04-28T08:22:34;100225.34;;;14.45;44.68
33506;BME280;19843;51.040;13.782;2023-04-28T08:25:01;100225.56;;;14.56;44.45
33506;BME280;19843;51.040;13.782;2023-04-28T08:27:29;100227.84;;;14.70;43.90
33506;BME280;19843;51.040;13.782;2023-04-28T08:29:57;100220.34;;;15.50;43.23
33506;BME280;19843;51.040;13.782;2023-04-28T08:32:24;100218.47;;;16.14;41.60
33506;BME280;19843;51.040;13.782;2023-04-28T08:34:51;100219.53;;;16.02;42.70
33506;BME280;19843;51.040;13.782;2023-04-28T08:37:20;100219.66;;;15.83;41.79
33506;BME280;19843;51.040;13.782;2023-04-28T08:39:48;100212.69;;;16.03;42.41
33506;BME280;19843;51.040;13.782;2023-04-28T08:42:16;100221.50;;;15.45;42.96
33506;BME280;19843;51.040;13.782;2023-04-28T08:44:44;100207.41;;;15.68;42.84
33506;BME280;19843;51.040;13.782;2023-04-28T08:47:13;100199.50;;;15.77;42.97
33506;BME280;19843;51.040;13.782;2023-04-28T08:49:40;100191.66;;;15.94;42.76
33506;BME280;19843;51.040;13.782;2023-04-28T08:52:09;100192.78;;;16.53;41.37
33506;BME280;19843;51.040;13.782;2023-04-28T08:54:39;100200.50;;;16.59;41.63
33506;BME280;19843;51.040;13.782;2023-04-28T08:57:07;100197.16;;;16.50;42.36
33506;BME280;19843;51.040;13.782;2023-04-28T08:59:39;100189.16;;;16.52;41.40
33506;BME280;19843;51.040;13.782;2023-04-28T09:02:07;100183.69;;;15.99;42.25
33506;BME280;19843;51.040;13.782;2023-04-28T09:04:35;100184.28;;;16.49;42.20
33506;BME280;19843;51.040;13.782;2023-04-28T09:07:09;100182.69;;;16.85;41.30
33506;BME280;19843;51.040;13.782;2023-04-28T09:09:39;100187.88;;;16.46;42.42
33506;BME280;19843;51.040;13.782;2023-04-28T09:12:06;100183.94;;;16.54;42.04
33506;BME280;19843;51.040;13.782;2023-04-28T09:14:35;100176.03;;;16.67;41.40
33506;BME280;19843;51.040;13.782;2023-04-28T09:17:08;100185.78;;;16.39;42.34
33506;BME280;19843;51.040;13.782;2023-04-28T09:19:37;100180.19;;;16.80;42.07
33506;BME280;19843;51.040;13.782;2023-04-28T09:22:05;100180.16;;;17.21;41.44
33506;BME280;19843;51.040;13.782;2023-04-28T09:24:52;100171.44;;;17.44;41.20
33506;BME280;19843;51.040;13.782;2023-04-28T09:27:25;100172.88;;;16.76;42.06
33506;BME280;19843;51.040;13.782;2023-04-28T09:29:53;100178.38;;;17.02;41.01
33506;BME280;19843;51.040;13.782;2023-04-28T09:32:22;100171.16;;;16.64;41.52
33506;BME280;19843;51.040;13.782;2023-04-28T09:34:51;100176.38;;;16.62;41.84
33506;BME280;19843;51.040;13.782;2023-04-28T09:37:21;100172.09;;;16.75;41.49
33506;BME280;19843;51.040;13.782;2023-04-28T09:39:50;100163.25;;;16.77;40.77
33506;BME280;19843;51.040;13.782;2023-04-28T09:42:33;100163.22;;;16.73;41.01
33506;BME280;19843;51.040;13.782;2023-04-28T09:45:02;100166.28;;;17.02;40.36
33506;BME280;19843;51.040;13.782;2023-04-28T09:47:31;100168.41;;;17.15;40.44
33506;BME280;19843;51.040;13.782;2023-04-28T09:50:02;100174.88;;;16.72;39.76
33506;BME280;19843;51.040;13.782;2023-04-28T09:52:31;100166.38;;;16.31;40.82
33506;BME280;19843;51.040;13.782;2023-04-28T09:55:00;100162.06;;;16.41;40.96
33506;BME280;19843;51.040;13.782;2023-04-28T09:57:30;100163.47;;;16.61;40.74
33506;BME280;19843;51.040;13.782;2023-04-28T10:00:00;100170.22;;;16.16;41.82
33506;BME280;19843;51.040;13.782;2023-04-28T10:02:32;100167.94;;;16.28;41.28
33506;BME280;19843;51.040;13.782;2023-04-28T10:05:09;100169.38;;;16.11;41.46
33506;BME280;19843;51.040;13.782;2023-04-28T10:07:37;100165.59;;;16.71;41.09
33506;BME280;19843;51.040;13.782;2023-04-28T10:10:06;100158.22;;;16.22;41.76
33506;BME280;19843;51.040;13.782;2023-04-28T10:12:34;100152.34;;;16.75;40.60
33506;BME280;19843;51.040;13.782;2023-04-28T10:15:06;100156.38;;;16.74;41.35
33506;BME280;19843;51.040;13.782;2023-04-28T10:17:34;100154.69;;;16.70;41.56
33506;BME280;19843;51.040;13.782;2023-04-28T10:20:04;100156.06;;;16.83;42.76
33506;BME280;19843;51.040;13.782;2023-04-28T10:22:42;100158.22;;;17.00;42.93
33506;BME280;19843;51.040;13.782;2023-04-28T10:25:24;100162.84;;;16.41;43.67
33506;BME280;19843;51.040;13.782;2023-04-28T10:27:52;100154.03;;;16.43;44.96
33506;BME280;19843;51.040;13.782;2023-04-28T10:30:22;100157.00;;;16.20;46.15
33506;BME280;19843;51.040;13.782;2023-04-28T10:33:22;100157.19;;;16.37;45.87
33506;BME280;19843;51.040;13.782;2023-04-28T10:35:51;100157.69;;;16.47;48.88
33506;BME280;19843;51.040;13.782;2023-04-28T10:38:19;100164.31;;;15.94;47.25
33506;BME280;19843;51.040;13.782;2023-04-28T10:40:48;100161.97;;;16.00;46.75
33506;BME280;19843;51.040;13.782;2023-04-28T10:43:31;100157.81;;;15.90;49.07
33506;BME280;19843;51.040;13.782;2023-04-28T10:46:05;100175.06;;;15.58;52.22
33506;BME280;19843;51.040;13.782;2023-04-28T10:48:55;100178.38;;;15.37;55.47
33506;BME280;19843;51.040;13.782;2023-04-28T10:51:30;100185.84;;;15.26;57.93
33506;BME280;19843;51.040;13.782;2023-04-28T10:54:17;100190.63;;;14.99;64.20
33506;BME280;19843;51.040;13.782;2023-04-28T10:57:13;100187.34;;;14.32;67.48
33506;BME280;19843;51.040;13.782;2023-04-28T10:59:41;100196.31;;;14.80;63.79
33506;BME280;19843;51.040;13.782;2023-04-28T11:02:40;100196.19;;;14.73;63.94
33506;BME280;19843;51.040;13.782;2023-04-28T11:05:12;100207.09;;;14.16;70.97
33506;BME280;19843;51.040;13.782;2023-04-28T11:07:40;100198.66;;;14.55;72.68
33506;BME280;19843;51.040;13.782;2023-04-28T11:10:08;100204.47;;;14.46;72.87
33506;BME280;19843;51.040;13.782;2023-04-28T11:12:35;100201.03;;;14.53;72.86
33506;BME280;19843;51.040;13.782;2023-04-28T11:15:12;100203.09;;;14.56;76.23
33506;BME280;19843;51.040;13.782;2023-04-28T11:17:41;100200.78;;;14.62;75.24
33506;BME280;19843;51.040;13.782;2023-04-28T11:20:11;100196.59;;;14.52;75.56
33506;BME280;19843;51.040;13.782;2023-04-28T11:22:40;100208.41;;;14.22;75.67
33506;BME280;19843;51.040;13.782;2023-04-28T11:25:08;100213.59;;;14.40;69.48
33506;BME280;19843;51.040;13.782;2023-04-28T11:27:35;100210.50;;;14.25;75.46
33506;BME280;19843;51.040;13.782;2023-04-28T11:30:17;100213.44;;;14.52;76.40
33506;BME280;19843;51.040;13.782;2023-04-28T11:32:48;100207.47;;;14.53;73.96
33506;BME280;19843;51.040;13.782;2023-04-28T11:35:16;100213.53;;;14.78;72.40
33506;BME280;19843;51.040;13.782;2023-04-28T11:37:44;100212.38;;;15.02;72.39
33506;BME280;19843;51.040;13.782;2023-04-28T11:40:13;100217.03;;;15.18;75.57
33506;BME280;19843;51.040;13.782;2023-04-28T11:42:46;100212.84;;;15.08;79.46
33506;BME280;19843;51.040;13.782;2023-04-28T11:45:13;100211.97;;;15.53;77.49
33506;BME280;19843;51.040;13.782;2023-04-28T11:47:41;100199.19;;;15.59;75.66
33506;BME280;19843;51.040;13.782;2023-04-28T11:50:10;100209.16;;;14.00;75.32
33506;BME280;19843;51.040;13.782;2023-04-28T11:52:47;100218.03;;;14.21;74.41
33506;BME280;19843;51.040;13.782;2023-04-28T11:55:18;100215.00;;;14.11;71.38
33506;BME280;19843;51.040;13.782;2023-04-28T11:57:45;100210.59;;;14.94;71.11
33506;BME280;19843;51.040;13.782;2023-04-28T12:00:14;100206.03;;;15.58;68.69
33506;BME280;19843;51.040;13.782;2023-04-28T12:02:45;100203.22;;;15.09;68.24
33506;BME280;19843;51.040;13.782;2023-04-28T12:05:14;100191.78;;;16.01;66.60
33506;BME280;19843;51.040;13.782;2023-04-28T12:07:42;100200.25;;;16.72;64.84
33506;BME280;19843;51.040;13.782;2023-04-28T12:10:12;100189.56;;;16.92;61.43
33506;BME280;19843;51.040;13.782;2023-04-28T12:12:41;100188.03;;;17.01;59.64
33506;BME280;19843;51.040;13.782;2023-04-28T12:15:17;100183.03;;;16.84;64.67
33506;BME280;19843;51.040;13.782;2023-04-28T12:17:47;100190.34;;;16.88;59.63
33506;BME280;19843;51.040;13.782;2023-04-28T12:20:35;100188.28;;;16.82;56.66
33506;BME280;19843;51.040;13.782;2023-04-28T12:23:04;100180.22;;;16.47;60.51
33506;BME280;19843;51.040;13.782;2023-04-28T12:25:42;100187.66;;;15.65;58.57
33506;BME280;19843;51.040;13.782;2023-04-28T12:28:10;100183.78;;;15.23;58.16
33506;BME280;19843;51.040;13.782;2023-04-28T12:30:37;100190.63;;;15.49;61.66
33506;BME280;19843;51.040;13.782;2023-04-28T12:33:21;100185.22;;;15.93;59.31
33506;BME280;19843;51.040;13.782;2023-04-28T12:35:49;100181.22;;;15.94;59.89
33506;BME280;19843;51.040;13.782;2023-04-28T12:38:17;100183.97;;;16.21;60.12
33506;BME280;19843;51.040;13.782;2023-04-28T12:40:45;100176.63;;;16.12;56.14
33506;BME280;19843;51.040;13.782;2023-04-28T12:43:12;100176.78;;;16.27;57.77
33506;BME280;19843;51.040;13.782;2023-04-28T12:45:40;100176.59;;;16.46;56.66
33506;BME280;19843;51.040;13.782;2023-04-28T12:48:08;100179.41;;;15.79;58.04
33506;BME280;19843;51.040;13.782;2023-04-28T12:50:36;100180.50;;;15.44;57.96
33506;BME280;19843;51.040;13.782;2023-04-28T12:53:05;100170.84;;;15.19;58.60
33506;BME280;19843;51.040;13.782;2023-04-28T12:55:32;100169.63;;;14.93;60.12